Time;durP1;ratioP1;P1;durP2;ratioP2;P2;SDS_P1;SDS_P2;PMS_P1;PMS_P2;Temp;Humidity;BMP_temperature;BMP_pressure;BME280_temperature;BME280_humidity;BME280_pressure;Samples;Min_cycle;Max_cycle;Signal;HPM_P1;HPM_P2
2022/11/19 00:01:17;;;;;;;20.58;10.25;;;-3272.70;97.00;;;;;;5009521;28;20113;-75
2022/11/19 00:03:44;;;;;;;18.90;9.55;;;-3272.80;97.00;;;;;;5010661;28;20091;-75
2022/11/19 00:06:17;;;;;;;20.83;10.10;;;-3272.70;97.10;;;;;;4997357;28;20471;-75
2022/11/19 00:08:43;;;;;;;17.88;9.32;;;-3272.80;97.10;;;;;;5004715;28;20044;-75
2022/11/19 00:14:02;;;;;;;21.15;9.50;;;-3272.80;97.10;;;;;;5004032;28;20489;-75
2022/11/19 00:16:27;;;;;;;19.02;10.00;;;-3272.70;97.00;;;;;;5008383;28;20093;-75
2022/11/19 00:18:52;;;;;;;21.63;10.70;;;-3272.80;97.10;;;;;;5009027;28;20535;-75
2022/11/19 00:21:18;;;;;;;20.80;10.52;;;-3272.80;97.00;;;;;;5008721;28;20030;-76
2022/11/19 00:23:43;;;;;;;20.58;9.63;;;-3272.80;97.00;;;;;;5007522;28;20419;-75
2022/11/19 00:26:11;;;;;;;20.27;10.25;;;-3272.70;97.00;;;;;;5008591;28;20145;-75
2022/11/19 00:28:37;;;;;;;18.25;9.63;;;-3272.70;97.00;;;;;;5005272;28;20045;-75
2022/11/19 00:31:08;;;;;;;22.13;10.85;;;-3272.70;97.00;;;;;;4991882;28;20092;-75
2022/11/19 00:33:35;;;;;;;23.00;10.52;;;-3272.70;97.00;;;;;;5008725;28;20109;-74
2022/11/19 00:36:02;;;;;;;24.98;11.23;;;-3272.70;96.90;;;;;;4990723;28;20030;-75
2022/11/19 00:38:29;;;;;;;22.05;10.57;;;-3272.70;96.90;;;;;;5008243;28;20030;-75
2022/11/19 00:40:55;;;;;;;22.48;10.50;;;-3272.60;96.90;;;;;;5008739;28;20033;-75
2022/11/19 00:46:05;;;;;;;25.42;10.98;;;-3272.60;96.90;;;;;;5000129;28;20037;-75
2022/11/19 00:48:30;;;;;;;22.67;10.32;;;-3272.50;96.90;;;;;;5008205;28;20367;-75
2022/11/19 00:50:56;;;;;;;21.50;10.40;;;-3272.50;96.90;;;;;;5008362;28;20045;-75
2022/11/19 00:53:21;;;;;;;19.85;10.68;;;-3272.50;96.90;;;;;;5008352;28;20034;-73
2022/11/19 00:55:47;;;;;;;19.63;10.05;;;-3272.50;96.90;;;;;;5008107;28;20026;-74
2022/11/19 00:58:12;;;;;;;20.05;10.57;;;-3272.50;96.90;;;;;;4999128;28;20042;-74
2022/11/19 01:00:38;;;;;;;22.42;10.75;;;-3272.50;96.90;;;;;;5007006;28;20041;-74
2022/11/19 01:03:04;;;;;;;24.20;11.13;;;-3272.50;96.90;;;;;;4990587;28;20332;-74
2022/11/19 01:05:30;;;;;;;20.08;10.52;;;-3272.50;97.00;;;;;;5008458;28;20049;-74
2022/11/19 01:07:55;;;;;;;17.75;10.23;;;-3272.50;96.90;;;;;;4996590;28;20029;-74
2022/11/19 01:10:21;;;;;;;20.23;10.35;;;-3272.50;96.90;;;;;;5005389;28;20053;-74
2022/11/19 01:15:31;;;;;;;17.95;9.40;;;-3272.40;96.80;;;;;;5009108;28;20053;-75
2022/11/19 01:17:56;;;;;;;20.63;9.68;;;-3272.40;96.90;;;;;;5012160;28;20125;-74
2022/11/19 01:20:22;;;;;;;21.27;9.98;;;-3272.40;96.80;;;;;;5009715;28;20365;-74
2022/11/19 01:22:47;;;;;;;20.60;9.73;;;-3272.40;96.90;;;;;;5006223;28;20164;-74
2022/11/19 01:25:13;;;;;;;20.38;9.70;;;-3272.40;96.90;;;;;;5011287;28;20038;-74
2022/11/19 01:27:39;;;;;;;19.73;10.13;;;-3272.40;96.90;;;;;;5009144;28;20041;-74
2022/11/19 01:30:05;;;;;;;23.45;10.07;;;-3272.50;96.90;;;;;;5010769;28;20033;-74
2022/11/19 01:32:31;;;;;;;19.63;9.45;;;-3272.40;96.90;;;;;;5011604;28;20125;-74
2022/11/19 01:34:57;;;;;;;17.90;9.18;;;-3272.40;96.90;;;;;;5011289;28;20132;-74
2022/11/19 01:37:23;;;;;;;20.65;9.50;;;-3272.50;96.90;;;;;;5011428;28;20081;-74
2022/11/19 01:39:48;;;;;;;21.60;8.60;;;-3272.40;96.90;;;;;;5011404;28;20486;-74
2022/11/19 01:45:42;;;;;;;22.30;9.45;;;-3272.40;96.90;;;;;;5008924;28;20491;-74
2022/11/19 01:48:13;;;;;;;21.60;9.73;;;-3272.40;96.90;;;;;;5008951;28;20069;-74
2022/11/19 01:50:49;;;;;;;17.90;9.02;;;-3272.40;96.90;;;;;;5012257;28;20148;-74
2022/11/19 01:53:18;;;;;;;20.10;8.95;;;-3272.40;96.90;;;;;;5010610;28;20352;-75
2022/11/19 01:55:44;;;;;;;17.77;8.85;;;-3272.40;96.90;;;;;;5011460;28;20025;-74
2022/11/19 01:58:13;;;;;;;22.27;10.00;;;-3272.40;96.90;;;;;;5001847;28;20045;-76
2022/11/19 02:00:38;;;;;;;17.38;9.60;;;-3272.30;96.80;;;;;;5009369;28;20021;-74
2022/11/19 02:03:04;;;;;;;18.38;9.38;;;-3272.40;96.90;;;;;;5012940;28;20040;-74
2022/11/19 02:05:29;;;;;;;16.02;8.55;;;-3272.40;96.90;;;;;;5011233;28;20050;-74
2022/11/19 02:07:56;;;;;;;18.52;8.65;;;-3272.40;96.80;;;;;;5015363;28;20049;-74
2022/11/19 02:10:55;;;;;;;19.35;9.50;;;-3272.50;96.80;;;;;;5008420;28;20029;-74
2022/11/19 02:13:40;;;;;;;19.92;9.55;;;-3272.40;96.60;;;;;;4990401;28;20049;-74
2022/11/19 02:16:22;;;;;;;20.73;9.20;;;-3272.30;96.60;;;;;;4993409;28;20060;-74
2022/11/19 02:18:55;;;;;;;22.20;9.65;;;-3272.20;96.60;;;;;;5018454;28;20033;-74
2022/11/19 02:21:34;;;;;;;23.70;10.30;;;-3272.10;96.60;;;;;;5010821;28;20057;-74
2022/11/19 02:24:35;;;;;;;23.58;9.48;;;-3272.10;96.60;;;;;;5001176;28;20033;-74
2022/11/19 02:27:34;;;;;;;21.42;9.13;;;-3272.10;96.60;;;;;;5007043;28;20030;-75
2022/11/19 02:30:02;;;;;;;17.65;8.95;;;-3272.00;96.50;;;;;;5000594;28;20473;-74
2022/11/19 02:32:35;;;;;;;24.13;10.40;;;-3271.90;96.50;;;;;;5010795;28;20156;-75
2022/11/19 02:35:32;;;;;;;21.65;9.43;;;-3271.90;96.50;;;;;;5009349;28;20053;-74
2022/11/19 02:38:26;;;;;;;19.50;9.35;;;-3271.80;96.50;;;;;;5014613;28;20049;-74
2022/11/19 02:47:19;;;;;;;19.98;8.85;;;-3271.80;96.60;;;;;;5006262;28;20065;-74
2022/11/19 02:49:48;;;;;;;20.20;9.57;;;-3271.80;96.70;;;;;;5010374;28;20087;-74
2022/11/19 02:52:15;;;;;;;19.95;10.32;;;-3271.80;96.70;;;;;;4992471;28;20366;-74
2022/11/19 02:54:41;;;;;;;17.65;8.13;;;-3271.80;96.70;;;;;;5010239;28;20030;-74
2022/11/19 02:57:09;;;;;;;19.73;9.23;;;-3271.90;96.80;;;;;;5008330;28;20057;-75
2022/11/19 03:05:29;;;;;;;18.53;8.77;;;-3271.90;96.80;;;;;;5017306;28;20394;-75
2022/11/19 03:07:55;;;;;;;19.30;9.13;;;-3271.90;96.80;;;;;;5013081;28;20069;-75
2022/11/19 03:10:25;;;;;;;23.02;9.13;;;-3271.90;96.80;;;;;;5006367;28;20022;-74
2022/11/19 03:16:40;;;;;;;22.45;9.65;;;-3271.80;96.80;;;;;;5008239;28;20037;-75
2022/11/19 03:18:54;;;;;;;19.38;9.55;;;-3271.70;96.70;;;;;;5011037;28;20442;-74
2022/11/19 03:21:44;;;;;;;24.40;9.27;;;-3271.70;96.60;;;;;;5014402;28;20057;-75
2022/11/19 03:24:16;;;;;;;;;;;-3271.60;96.60;;;;;;5000120;28;20092;-74
2022/11/19 03:26:54;;;;;;;20.98;8.43;;;-3271.50;96.60;;;;;;5009749;28;20013;-75
2022/11/19 03:29:23;;;;;;;18.95;8.95;;;-3271.50;96.60;;;;;;5008534;28;20121;-75
2022/11/19 03:31:54;;;;;;;19.92;9.13;;;-3271.40;96.60;;;;;;5007544;28;20062;-74
2022/11/19 03:34:22;;;;;;;21.25;9.27;;;-3271.40;96.60;;;;;;4992252;28;20481;-75
2022/11/19 03:36:51;;;;;;;16.80;8.20;;;-3271.30;96.60;;;;;;5002886;28;20018;-74
2022/11/19 03:39:18;;;;;;;26.58;9.05;;;-3271.40;96.60;;;;;;5008217;28;20149;-74
2022/11/19 03:41:47;;;;;;;20.58;9.30;;;-3271.20;96.50;;;;;;5014727;28;20034;-74
2022/11/19 03:44:22;;;;;;;23.83;9.10;;;-3271.20;96.50;;;;;;5009266;28;20048;-75
2022/11/19 03:46:53;;;;;;;20.70;9.32;;;-3271.20;96.40;;;;;;4998488;28;20438;-74
2022/11/19 03:49:23;;;;;;;17.45;9.00;;;-3271.10;96.40;;;;;;5009081;28;20117;-74
2022/11/19 03:51:54;;;;;;;21.67;8.43;;;-3271.20;96.50;;;;;;5009668;28;20042;-74
2022/11/19 03:54:20;;;;;;;18.42;8.68;;;-3271.20;96.60;;;;;;4991084;28;20431;-74
2022/11/19 03:56:47;;;;;;;24.42;10.25;;;-3271.20;96.50;;;;;;5007954;28;20100;-75
2022/11/19 03:59:13;;;;;;;22.40;9.32;;;-3271.20;96.40;;;;;;5002165;28;20034;-74
2022/11/19 04:01:39;;;;;;;18.08;8.95;;;-3271.10;96.40;;;;;;5009802;28;20482;-73
2022/11/19 04:06:48;;;;;;;18.45;8.27;;;-3271.10;96.50;;;;;;5008780;28;20120;-75
2022/11/19 04:09:14;;;;;;;21.67;9.20;;;-3271.20;96.60;;;;;;5005052;28;20025;-74
2022/11/19 04:11:39;;;;;;;20.23;9.75;;;-3271.20;96.40;;;;;;5008594;28;20502;-74
2022/11/19 04:14:05;;;;;;;21.05;9.63;;;-3271.30;96.50;;;;;;5006243;28;20038;-74
2022/11/19 04:16:30;;;;;;;20.17;9.13;;;-3271.10;96.40;;;;;;5008945;28;20038;-74
2022/11/19 04:18:56;;;;;;;17.70;9.55;;;-3271.10;96.30;;;;;;5008784;28;20064;-74
2022/11/19 04:21:21;;;;;;;18.60;8.98;;;-3271.10;96.40;;;;;;5008823;28;20439;-75
2022/11/19 04:23:47;;;;;;;21.50;9.55;;;-3271.10;96.30;;;;;;5007357;28;20197;-74
2022/11/19 04:26:12;;;;;;;19.45;9.10;;;-3271.10;96.30;;;;;;4991213;28;20536;-74
2022/11/19 04:28:38;;;;;;;22.17;9.23;;;-3271.10;96.50;;;;;;5005261;28;20159;-74
2022/11/19 04:31:03;;;;;;;20.50;9.68;;;-3271.20;96.60;;;;;;5009693;28;20082;-74
2022/11/19 04:33:29;;;;;;;24.65;9.60;;;-3271.30;96.50;;;;;;5009222;28;20054;-74
2022/11/19 04:35:54;;;;;;;22.90;9.63;;;-3271.20;96.40;;;;;;4997626;28;20053;-75
2022/11/19 04:38:20;;;;;;;25.63;10.05;;;-3271.20;96.40;;;;;;5007980;28;20037;-75
2022/11/19 04:40:46;;;;;;;18.00;9.32;;;-3271.10;96.40;;;;;;5009227;28;20103;-74
2022/11/19 04:43:11;;;;;;;25.75;10.50;;;-3271.10;96.30;;;;;;5005193;28;20029;-75
2022/11/19 04:45:36;;;;;;;20.90;9.15;;;-3271.10;96.50;;;;;;5008705;28;20109;-74
2022/11/19 04:48:02;;;;;;;23.85;9.05;;;-3271.10;96.40;;;;;;5008411;28;20085;-74
2022/11/19 04:50:27;;;;;;;22.40;9.65;;;-3271.10;96.40;;;;;;5008672;28;20461;-74
2022/11/19 04:52:53;;;;;;;20.02;9.00;;;-3271.10;96.30;;;;;;5008481;28;20065;-75
2022/11/19 04:55:18;;;;;;;22.02;9.82;;;-3271.20;96.60;;;;;;4998114;28;20026;-75
2022/11/19 04:57:44;;;;;;;19.60;9.32;;;-3271.20;96.50;;;;;;5012615;28;20062;-75
2022/11/19 05:00:10;;;;;;;25.55;9.68;;;-3271.20;96.50;;;;;;5011772;28;20044;-74
2022/11/19 05:02:35;;;;;;;26.20;10.00;;;-3271.20;96.50;;;;;;5008451;28;20030;-74
2022/11/19 05:05:01;;;;;;;26.10;9.85;;;-3271.10;96.50;;;;;;5008432;28;20030;-74
2022/11/19 05:07:26;;;;;;;27.77;10.45;;;-3271.10;96.40;;;;;;5008483;28;20057;-75
2022/11/19 05:09:52;;;;;;;22.48;9.30;;;-3271.10;96.50;;;;;;4989814;28;20359;-75
2022/11/19 05:12:18;;;;;;;24.90;10.55;;;-3271.00;96.50;;;;;;5009822;28;20044;-74
2022/11/19 05:14:44;;;;;;;28.05;10.23;;;-3271.00;96.60;;;;;;4996001;28;20084;-75
2022/11/19 05:17:09;;;;;;;26.10;10.02;;;-3271.00;96.50;;;;;;5008277;28;20173;-75
2022/11/19 05:19:35;;;;;;;23.70;10.32;;;-3271.00;96.50;;;;;;5019041;28;20195;-75
2022/11/19 05:22:00;;;;;;;20.73;9.10;;;-3271.00;96.50;;;;;;5006944;28;20045;-74
2022/11/19 05:24:26;;;;;;;22.83;9.82;;;-3271.00;96.50;;;;;;5007872;28;20097;-75
2022/11/19 05:26:51;;;;;;;26.15;9.90;;;-3270.90;96.40;;;;;;5016625;28;20033;-75
2022/11/19 05:29:17;;;;;;;20.92;9.15;;;-3270.90;96.40;;;;;;5007331;28;20029;-78
2022/11/19 05:31:42;;;;;;;20.08;8.85;;;-3270.90;96.40;;;;;;5008593;28;20030;-78
2022/11/19 05:34:08;;;;;;;22.10;9.23;;;-3270.90;96.40;;;;;;5008706;28;20153;-78
2022/11/19 05:36:33;;;;;;;24.65;9.27;;;-3270.90;96.30;;;;;;5003562;28;20026;-78
2022/11/19 05:38:59;;;;;;;26.80;10.65;;;-3270.90;96.30;;;;;;5008072;28;20041;-78
2022/11/19 05:41:24;;;;;;;23.48;10.55;;;-3270.80;96.30;;;;;;5007769;28;20409;-78
2022/11/19 05:43:50;;;;;;;23.63;10.30;;;-3270.90;96.40;;;;;;4997569;28;20060;-78
2022/11/19 05:46:15;;;;;;;26.95;10.27;;;-3271.00;96.40;;;;;;5008387;28;20022;-78
2022/11/19 05:48:41;;;;;;;23.05;10.60;;;-3271.00;96.40;;;;;;5013627;28;20030;-78
2022/11/19 05:51:06;;;;;;;33.63;10.52;;;-3271.00;96.30;;;;;;5008464;28;20048;-78
2022/11/19 05:53:31;;;;;;;24.42;9.38;;;-3271.00;96.30;;;;;;5007822;28;20103;-78
2022/11/19 05:56:00;;;;;;;27.02;11.05;;;-3271.00;96.40;;;;;;5008329;28;20030;-78
2022/11/19 05:58:25;;;;;;;27.40;10.50;;;-3271.00;96.20;;;;;;4999047;28;20018;-78
2022/11/19 06:00:54;;;;;;;24.83;10.63;;;-3271.00;96.30;;;;;;5007815;28;20114;-78
2022/11/19 06:03:20;;;;;;;19.42;9.10;;;-3271.10;96.40;;;;;;5011918;28;20487;-78
2022/11/19 06:05:45;;;;;;;19.17;8.82;;;-3271.00;96.20;;;;;;5012343;28;20040;-78
2022/11/19 06:08:11;;;;;;;22.65;10.07;;;-3270.90;96.20;;;;;;5010625;28;20021;-78
2022/11/19 06:10:36;;;;;;;26.73;10.27;;;-3270.90;96.20;;;;;;5008564;28;20041;-79
2022/11/19 06:13:02;;;;;;;20.50;8.88;;;-3270.80;96.10;;;;;;5008970;28;20447;-78
2022/11/19 06:15:28;;;;;;;25.02;10.25;;;-3270.80;96.20;;;;;;5011385;28;20095;-79
2022/11/19 06:17:55;;;;;;;24.83;10.00;;;-3270.80;96.10;;;;;;5010933;28;20034;-78
2022/11/19 06:20:20;;;;;;;21.60;9.23;;;-3270.80;96.10;;;;;;5013066;28;20533;-79
2022/11/19 06:22:46;;;;;;;22.65;8.93;;;-3270.80;96.20;;;;;;5011142;28;20046;-78
2022/11/19 06:25:12;;;;;;;18.77;8.27;;;-3270.80;96.10;;;;;;5011087;28;20033;-78
2022/11/19 06:27:37;;;;;;;22.58;8.45;;;-3270.80;96.20;;;;;;5006794;28;20057;-78
2022/11/19 06:30:03;;;;;;;21.13;8.75;;;-3270.80;96.20;;;;;;5014717;28;20331;-77
2022/11/19 06:32:29;;;;;;;21.80;8.65;;;-3270.80;96.20;;;;;;5011322;28;20030;-76
2022/11/19 06:34:54;;;;;;;22.25;9.82;;;-3270.80;96.20;;;;;;5010743;28;20038;-76
2022/11/19 06:37:20;;;;;;;22.25;8.60;;;-3270.80;96.10;;;;;;5011021;28;20086;-76
2022/11/19 06:39:45;;;;;;;22.90;8.23;;;-3270.80;96.10;;;;;;5010468;28;20355;-76
2022/11/19 06:44:55;;;;;;;20.63;8.13;;;-3270.80;96.20;;;;;;5008736;28;20029;-76
2022/11/19 06:47:20;;;;;;;17.88;7.75;;;-3270.80;96.10;;;;;;5004569;28;20033;-76
2022/11/19 06:49:45;;;;;;;18.63;8.32;;;-3270.90;96.40;;;;;;5010744;28;20030;-76
2022/11/19 06:52:11;;;;;;;20.80;8.88;;;-3270.90;96.40;;;;;;5010265;28;20048;-76
2022/11/19 06:54:36;;;;;;;20.23;7.57;;;-3270.90;96.30;;;;;;5010304;28;20040;-76
2022/11/19 06:57:02;;;;;;;18.83;8.05;;;-3271.00;96.30;;;;;;5009402;28;20460;-76
2022/11/19 06:59:28;;;;;;;24.30;7.95;;;-3271.00;96.30;;;;;;5008237;28;20088;-76
2022/11/19 07:01:53;;;;;;;22.77;8.00;;;-3270.90;96.30;;;;;;5011636;28;20389;-76
2022/11/19 07:04:19;;;;;;;19.30;8.18;;;-3271.00;96.40;;;;;;5010201;28;20534;-76
2022/11/19 07:06:44;;;;;;;23.55;8.30;;;-3271.00;96.40;;;;;;5010841;28;20030;-76
2022/11/19 07:09:10;;;;;;;19.27;8.55;;;-3271.00;96.40;;;;;;5009699;28;20105;-76
2022/11/19 07:11:35;;;;;;;18.17;7.80;;;-3271.00;96.40;;;;;;5010170;28;20026;-76
2022/11/19 07:14:02;;;;;;;22.35;7.90;;;-3271.10;96.40;;;;;;5007689;28;20176;-76
2022/11/19 07:16:31;;;;;;;20.88;8.13;;;-3271.10;96.40;;;;;;5011340;28;20530;-76
2022/11/19 07:18:58;;;;;;;15.85;7.50;;;-3271.10;96.40;;;;;;5010463;28;20030;-76
2022/11/19 07:21:24;;;;;;;20.60;8.82;;;-3271.10;96.40;;;;;;5009260;28;20050;-76
2022/11/19 07:23:50;;;;;;;28.17;8.77;;;-3271.20;96.50;;;;;;5009460;28;20041;-76
2022/11/19 07:26:15;;;;;;;24.23;10.00;;;-3271.20;96.50;;;;;;5010601;28;20037;-76
2022/11/19 07:28:41;;;;;;;22.58;8.90;;;-3271.30;96.50;;;;;;5006518;28;20026;-76
2022/11/19 07:31:07;;;;;;;23.38;8.57;;;-3271.30;96.50;;;;;;5011380;28;20030;-76
2022/11/19 07:33:34;;;;;;;22.27;8.98;;;-3271.30;96.50;;;;;;5010185;28;20044;-76
2022/11/19 07:36:01;;;;;;;24.80;9.25;;;-3271.30;96.50;;;;;;4992127;28;20033;-76
2022/11/19 07:38:26;;;;;;;25.08;8.55;;;-3271.40;96.60;;;;;;5009777;28;20477;-76
2022/11/19 07:40:55;;;;;;;20.98;9.57;;;-3271.40;96.60;;;;;;5010375;28;20030;-76
2022/11/19 07:43:21;;;;;;;20.33;8.23;;;-3271.50;96.60;;;;;;4997024;28;20038;-76
2022/11/19 07:45:47;;;;;;;26.85;9.38;;;-3271.50;96.50;;;;;;5009795;28;20390;-76
2022/11/19 07:48:13;;;;;;;22.08;9.00;;;-3271.60;96.50;;;;;;5009878;28;20056;-76
2022/11/19 07:50:40;;;;;;;25.65;9.70;;;-3271.60;96.60;;;;;;5010078;28;20026;-76
2022/11/19 07:53:06;;;;;;;22.23;9.18;;;-3271.70;96.60;;;;;;5009151;28;20489;-76
2022/11/19 07:55:32;;;;;;;24.83;9.30;;;-3271.80;96.60;;;;;;5014864;28;20372;-76
2022/11/19 07:57:57;;;;;;;23.65;8.02;;;-3271.80;96.50;;;;;;5002935;28;20038;-76
2022/11/19 08:00:23;;;;;;;23.42;8.55;;;-3271.90;96.60;;;;;;5002804;28;20372;-76
2022/11/19 08:02:48;;;;;;;23.95;9.50;;;-3271.90;96.60;;;;;;5009631;28;20030;-76
2022/11/19 08:05:14;;;;;;;23.80;8.77;;;-3272.00;96.60;;;;;;5009986;28;20030;-76
2022/11/19 08:07:40;;;;;;;19.70;8.43;;;-3272.10;96.70;;;;;;5008862;28;20037;-76
2022/11/19 08:10:07;;;;;;;23.10;9.38;;;-3272.20;96.80;;;;;;5006375;28;20030;-76
2022/11/19 08:12:33;;;;;;;24.88;9.25;;;-3272.40;96.90;;;;;;5007768;28;20099;-76
2022/11/19 08:14:58;;;;;;;24.00;8.80;;;-3272.60;97.10;;;;;;5008227;28;20816;-76
2022/11/19 08:20:09;;;;;;;21.65;9.10;;;-3273.00;97.30;;;;;;5009450;28;20075;-75
2022/11/19 08:22:35;;;;;;;24.08;10.45;;;-3273.20;97.30;;;;;;5008153;28;20577;-76
2022/11/19 08:25:02;;;;;;;19.88;9.05;;;-3273.20;97.20;;;;;;5008375;28;20109;-76
2022/11/19 08:27:28;;;;;;;22.02;10.20;;;-3273.40;97.30;;;;;;5007568;28;20041;-76
2022/11/19 08:29:54;;;;;;;27.40;10.70;;;-3273.60;97.50;;;;;;5007154;28;20335;-76
2022/11/19 08:32:19;;;;;;;27.60;11.35;;;-3273.70;97.50;;;;;;5009909;28;20355;-76
2022/11/19 08:34:45;;;;;;;30.67;11.55;;;-3273.90;97.50;;;;;;5009034;28;20061;-76
2022/11/19 08:37:12;;;;;;;28.85;11.75;;;-3274.00;97.60;;;;;;5014651;28;20044;-76
2022/11/19 08:39:38;;;;;;;28.52;13.05;;;-3274.10;97.50;;;;;;5010871;28;20029;-76
2022/11/19 08:44:47;;;;;;;31.17;13.60;;;-3274.30;97.50;;;;;;5009146;28;20171;-76
2022/11/19 08:47:13;;;;;;;34.35;14.93;;;-3274.40;97.50;;;;;;5009049;28;20116;-77
2022/11/19 08:49:38;;;;;;;29.63;12.57;;;-3274.50;97.50;;;;;;5008852;28;20113;-76
2022/11/19 08:52:04;;;;;;;36.45;13.68;;;-3274.60;97.50;;;;;;5008106;28;20391;-76
2022/11/19 08:54:29;;;;;;;33.60;13.65;;;-3274.70;97.60;;;;;;5006948;28;20045;-76
2022/11/19 08:56:55;;;;;;;33.97;13.10;;;-3274.80;97.60;;;;;;5007608;28;20069;-75
2022/11/19 08:59:20;;;;;;;36.58;14.52;;;-3274.90;97.70;;;;;;5002180;28;20072;-76
2022/11/19 09:01:47;;;;;;;34.50;14.32;;;-3275.00;97.50;;;;;;5009053;28;20084;-76
2022/11/19 09:04:13;;;;;;;31.30;13.43;;;-3275.00;97.50;;;;;;5008902;28;20116;-76
2022/11/19 09:06:38;;;;;;;35.28;13.48;;;-3275.10;97.50;;;;;;5008736;28;20044;-76
2022/11/19 09:09:04;;;;;;;26.98;12.57;;;-3275.20;97.40;;;;;;5007658;28;20053;-76
2022/11/19 09:11:30;;;;;;;34.78;13.25;;;-3275.30;97.30;;;;;;4990691;28;20041;-75
2022/11/19 09:13:56;;;;;;;32.25;13.80;;;-3275.40;97.20;;;;;;5016089;28;20060;-76
2022/11/19 09:16:22;;;;;;;27.25;13.10;;;-3275.40;97.10;;;;;;5008757;28;20087;-75
2022/11/19 09:18:47;;;;;;;29.00;13.95;;;-3275.50;97.10;;;;;;5012573;28;20029;-75
2022/11/19 09:21:13;;;;;;;28.10;12.93;;;-3275.60;97.00;;;;;;5000458;28;20317;-76
2022/11/19 09:23:41;;;;;;;26.52;13.15;;;-3275.70;96.90;;;;;;5008373;28;20048;-76
2022/11/19 09:26:10;;;;;;;28.80;12.02;;;-3275.70;96.80;;;;;;5009205;28;20085;-76
2022/11/19 09:28:36;;;;;;;33.53;13.43;;;-3275.70;96.70;;;;;;5005023;28;20038;-75
2022/11/19 09:31:05;;;;;;;30.65;13.73;;;-3275.80;96.60;;;;;;5008822;28;20030;-75
2022/11/19 09:33:34;;;;;;;32.15;12.70;;;-3275.90;96.60;;;;;;5009946;28;20041;-75
2022/11/19 09:35:59;;;;;;;27.70;12.13;;;-3276.00;96.50;;;;;;5001630;28;20406;-75
2022/11/19 09:38:25;;;;;;;23.48;11.48;;;-3276.00;96.30;;;;;;5018386;28;20034;-74
2022/11/19 09:40:53;;;;;;;27.15;12.13;;;-3276.00;96.20;;;;;;5012509;28;20364;-74
2022/11/19 09:43:55;;;;;;;26.52;11.60;;;-3276.10;96.10;;;;;;5008608;28;20409;-75
2022/11/19 09:46:28;;;;;;;24.10;11.35;;;-3276.30;96.30;;;;;;5010181;28;20038;-74
2022/11/19 09:48:58;;;;;;;20.17;11.40;;;-3276.50;96.20;;;;;;5009027;28;20081;-75
2022/11/19 09:51:29;;;;;;;23.77;11.48;;;-3276.70;96.30;;;;;;5012181;28;20036;-74
2022/11/19 09:54:01;;;;;;;24.75;11.43;;;0.00;96.30;;;;;;5018346;28;20045;-74
2022/11/19 09:56:35;;;;;;;21.65;11.10;;;0.10;96.00;;;;;;5011139;28;20168;-75
2022/11/19 09:59:10;;;;;;;21.52;10.73;;;0.30;95.70;;;;;;4989296;28;20505;-74
2022/11/19 10:01:35;;;;;;;18.02;10.23;;;0.50;95.50;;;;;;5011846;28;20026;-75
2022/11/19 10:04:03;;;;;;;16.65;9.38;;;0.70;95.20;;;;;;5017840;28;20358;-73
2022/11/19 10:06:38;;;;;;;16.33;9.10;;;0.70;94.10;;;;;;5011983;28;20479;-72
2022/11/19 10:09:47;;;;;;;14.68;8.50;;;0.90;94.00;;;;;;5013050;28;20033;-73
2022/11/19 10:12:40;;;;;;;12.93;7.63;;;0.90;93.50;;;;;;5009312;28;20038;-73
2022/11/19 10:15:26;;;;;;;15.02;7.90;;;0.90;93.10;;;;;;5010108;28;20072;-72
2022/11/19 10:18:07;;;;;;;10.73;6.50;;;1.00;93.10;;;;;;5012599;28;20030;-72
2022/11/19 10:20:46;;;;;;;12.57;7.00;;;1.00;92.70;;;;;;5011415;28;20129;-72
2022/11/19 10:23:30;;;;;;;11.80;6.72;;;1.10;92.80;;;;;;5010871;28;20462;-72
2022/11/19 10:26:03;;;;;;;11.45;6.65;;;1.20;92.60;;;;;;5005319;28;20025;-72
2022/11/19 10:28:33;;;;;;;11.13;7.07;;;1.20;92.30;;;;;;5007485;28;20094;-72
2022/11/19 10:31:07;;;;;;;13.35;6.45;;;1.30;92.20;;;;;;5011888;28;20034;-72
2022/11/19 10:33:42;;;;;;;10.88;6.38;;;1.40;92.00;;;;;;5009466;28;20045;-73
2022/11/19 10:36:20;;;;;;;10.20;5.97;;;1.40;91.90;;;;;;5007151;28;20026;-72
2022/11/19 10:39:03;;;;;;;16.17;7.57;;;1.60;91.70;;;;;;5010612;28;20057;-72
2022/11/19 10:41:39;;;;;;;10.35;6.03;;;1.70;91.60;;;;;;5011009;28;20052;-72
2022/11/19 10:44:41;;;;;;;11.27;6.13;;;1.80;90.90;;;;;;4995901;28;20026;-73
2022/11/19 10:47:22;;;;;;;11.38;5.60;;;2.00;90.20;;;;;;4991336;28;20124;-73
2022/11/19 10:49:55;;;;;;;9.80;5.97;;;2.10;89.50;;;;;;5010645;28;20026;-73
2022/11/19 10:52:31;;;;;;;11.52;5.95;;;2.40;89.60;;;;;;5000185;28;20082;-73
2022/11/19 10:55:01;;;;;;;11.63;5.47;;;2.50;89.90;;;;;;5014151;28;20055;-73
2022/11/19 10:57:31;;;;;;;9.32;4.38;;;2.70;89.20;;;;;;5009362;28;20124;-73
2022/11/19 10:59:56;;;;;;;10.93;5.40;;;2.70;87.90;;;;;;5009261;28;20467;-73
2022/11/19 11:02:44;;;;;;;9.05;4.93;;;2.90;88.70;;;;;;5011186;28;20040;-73
2022/11/19 11:05:15;;;;;;;10.68;4.95;;;3.10;88.70;;;;;;4998509;28;20026;-74
2022/11/19 11:07:46;;;;;;;7.85;4.03;;;3.30;87.80;;;;;;5000010;28;20034;-73
2022/11/19 11:10:37;;;;;;;8.73;4.95;;;3.40;87.70;;;;;;5013948;28;20053;-74
2022/11/19 11:16:37;;;;;;;8.30;4.07;;;3.90;86.50;;;;;;5010810;28;20045;-74
2022/11/19 11:19:10;;;;;;;7.68;3.92;;;4.10;85.40;;;;;;5009958;28;20034;-74
2022/11/19 11:21:41;;;;;;;6.95;4.10;;;4.20;84.80;;;;;;5008742;28;20476;-74
2022/11/19 11:24:09;;;;;;;7.18;4.35;;;4.10;83.80;;;;;;5009124;28;20036;-74
2022/11/19 11:26:36;;;;;;;6.70;3.88;;;4.20;85.30;;;;;;4994493;28;20045;-74
2022/11/19 11:29:10;;;;;;;6.82;3.95;;;3.90;83.60;;;;;;5007241;28;20082;-74
2022/11/19 11:31:39;;;;;;;5.60;3.45;;;3.80;85.50;;;;;;5002575;28;20042;-74
2022/11/19 11:34:13;;;;;;;7.22;3.45;;;3.80;85.80;;;;;;4997577;28;20048;-74
2022/11/19 11:36:39;;;;;;;7.25;3.17;;;3.90;85.00;;;;;;5021971;28;20117;-74
2022/11/19 11:39:05;;;;;;;9.98;3.35;;;4.00;84.30;;;;;;5015671;28;20034;-74
2022/11/19 11:41:37;;;;;;;7.10;3.33;;;4.20;83.20;;;;;;5017223;28;20415;-74
2022/11/19 11:44:14;;;;;;;7.93;3.83;;;4.40;82.50;;;;;;5006670;28;20034;-74
2022/11/19 11:46:55;;;;;;;6.15;3.55;;;4.60;83.90;;;;;;5009273;28;20037;-74
2022/11/19 11:49:34;;;;;;;5.18;3.28;;;4.20;82.20;;;;;;5009399;28;20522;-74
2022/11/19 11:52:05;;;;;;;6.03;3.40;;;4.30;83.00;;;;;;5009735;28;20040;-74
2022/11/19 11:54:31;;;;;;;7.47;3.72;;;4.10;82.90;;;;;;5009373;28;20419;-74
2022/11/19 11:57:18;;;;;;;6.32;3.42;;;3.90;82.70;;;;;;5003988;28;20038;-74
2022/11/19 11:59:44;;;;;;;5.90;3.72;;;4.00;82.80;;;;;;5005987;28;20041;-74
2022/11/19 12:02:30;;;;;;;8.95;3.92;;;4.30;83.30;;;;;;5011840;28;20467;-74
2022/11/19 12:05:01;;;;;;;9.02;3.60;;;4.70;82.40;;;;;;5009349;28;20105;-74
2022/11/19 12:07:53;;;;;;;6.78;3.72;;;5.00;81.50;;;;;;5009698;28;20080;-73
2022/11/19 12:10:31;;;;;;;7.05;3.65;;;5.10;81.60;;;;;;5008964;28;20029;-74
2022/11/19 12:13:19;;;;;;;5.93;3.47;;;5.00;80.60;;;;;;5007687;28;20025;-74
2022/11/19 12:15:56;;;;;;;5.40;3.17;;;4.80;82.30;;;;;;5009300;28;20045;-74
2022/11/19 12:18:44;;;;;;;9.68;4.18;;;5.00;81.90;;;;;;5009505;28;20096;-74
2022/11/19 12:21:18;;;;;;;6.90;4.30;;;5.00;82.20;;;;;;5008998;28;20022;-73
2022/11/19 12:24:17;;;;;;;6.95;4.15;;;5.10;82.40;;;;;;5009234;28;20072;-74
2022/11/19 12:27:06;;;;;;;8.32;6.35;;;5.10;81.90;;;;;;4978393;28;20048;-74
2022/11/19 12:29:55;;;;;;;5.72;3.80;;;5.20;81.50;;;;;;4997855;28;20029;-74
2022/11/19 12:32:48;;;;;;;5.05;3.80;;;5.20;82.30;;;;;;5005411;28;20037;-74
2022/11/19 12:35:32;;;;;;;4.35;2.80;;;5.40;82.70;;;;;;5004698;28;20411;-74
2022/11/19 12:38:28;;;;;;;6.70;3.17;;;5.30;81.40;;;;;;5009156;28;20022;-74
2022/11/19 12:41:33;;;;;;;4.38;2.70;;;5.30;82.10;;;;;;5009500;28;20084;-74
2022/11/19 12:44:01;;;;;;;7.25;2.85;;;5.10;81.80;;;;;;5003859;28;20041;-74
2022/11/19 12:46:43;;;;;;;5.78;2.70;;;5.10;82.00;;;;;;5008972;28;20410;-74
2022/11/19 12:49:39;;;;;;;5.47;2.90;;;5.30;81.80;;;;;;5007185;28;20037;-74
2022/11/19 12:52:36;;;;;;;5.18;2.55;;;5.20;81.30;;;;;;5008933;28;20022;-74
2022/11/19 12:55:14;;;;;;;4.53;2.60;;;5.30;81.80;;;;;;4926003;28;20066;-74
2022/11/19 12:57:52;;;;;;;4.53;2.20;;;5.60;81.20;;;;;;5000483;28;20034;-74
2022/11/19 13:00:22;;;;;;;4.90;2.53;;;5.90;79.80;;;;;;5007670;28;20026;-74
2022/11/19 13:03:19;;;;;;;5.10;2.80;;;6.10;79.20;;;;;;4990846;28;20162;-74
2022/11/19 13:05:59;;;;;;;5.57;2.78;;;6.20;78.90;;;;;;5007888;28;20049;-74
2022/11/19 13:08:37;;;;;;;6.25;4.10;;;6.40;77.90;;;;;;4998484;28;20192;-74
2022/11/19 13:11:26;;;;;;;4.75;2.95;;;5.80;77.70;;;;;;5010435;28;20029;-74
2022/11/19 13:13:59;;;;;;;4.43;2.25;;;5.70;79.30;;;;;;5009694;28;20121;-74